Lewiston Nez Perce County Airport Lewiston US
ICAO: KLWS
IATA: LWS
Category: Medium
Scheduled Services: Yes

Elevation: 1442 ft
TransAlt. 18000 ft.

Airport Communications:
ASOS:135.575
SEATTLE CNTR:123.95
CTAF:119.4
GND:121.9
BOISE RDO:122.35
TWR:119.4
UNICOM:122.95

KLWS Zoom In..

If you have problems with the map follow the link
https://www.worldairports.se/pages/airport.php?
ICAO=KLWS

Runways:

(A) RW 08 length 6512 ft width 150 ft
---- / hdg 83

(B) RW 12 length 5000 ft width 100 ft
---- / hdg 116

(C) RW 26 length 6512 ft width 150 ft
ILS 109.70 / hdg 263

(D) RW 30 length 5000 ft width 100 ft
---- / hdg 296

Location; KLWS
Day. 20 / Time. 21.18 Zulu
* Altimeter: 29.77
* Temperature: -01° c. -30.2°f.
* Wind from: 270° Speed 04 kn.
Dewpoint: -03° c.
Visibility: 2 m.
Clouds: Few 500 ft.
Clouds: Broken 2900 ft.
Clouds: Overcast 4000 ft.
Conditions: Light Snow.Conditions: Mist.

KLWS 202118Z 27004KT 2 1/2SM -SN BR FEW005 BKN029 OVC040 M01/M03 A2977 RMK AO2 P0000 T10111028


Wind From 270°
Speed 04 kn.

 
 
jpsmedia.com for Web Design worldairports.se 2019   terms of use